Time;durP1;ratioP1;P1;durP2;ratioP2;P2;SDS_P1;SDS_P2;PMS_P1;PMS_P2;Temp;Humidity;BMP_temperature;BMP_pressure;BME280_temperature;BME280_humidity;BME280_pressure;Samples;Min_cycle;Max_cycle;Signal;HPM_P1;HPM_P2
2022/06/15 00:00:11;;;;;;;11.30;5.60;;;;;;;10.38;71.91;98422.88;105944;1275;22649;-85
2022/06/15 00:02:59;;;;;;;8.60;4.60;;;;;;;9.98;73.25;98423.31;105834;1277;25346;-84
2022/06/15 00:05:28;;;;;;;17.20;12.00;;;;;;;9.67;73.27;98420.04;105882;1278;22779;-84
2022/06/15 00:07:55;;;;;;;10.50;5.70;;;;;;;9.46;72.74;98417.33;105830;1278;22557;-84
2022/06/15 00:10:23;;;;;;;9.70;5.40;;;;;;;9.25;73.37;98415.04;105926;1278;22566;-83
2022/06/15 00:12:51;;;;;;;8.50;5.20;;;;;;;9.06;73.67;98418.77;105940;1278;25406;-86
2022/06/15 00:15:19;;;;;;;11.20;6.40;;;;;;;8.89;73.77;98417.83;106059;1279;22567;-86
2022/06/15 00:17:47;;;;;;;12.40;5.90;;;;;;;8.77;73.54;98419.70;105931;1279;22832;-86
2022/06/15 00:20:15;;;;;;;8.40;4.80;;;;;;;8.65;74.18;98422.08;105683;1279;24478;-86
2022/06/15 00:22:43;;;;;;;8.20;5.00;;;;;;;8.59;75.69;98421.26;105830;1279;22846;-86
2022/06/15 00:25:13;;;;;;;7.90;5.10;;;;;;;8.56;76.73;98425.39;105815;1277;23208;-85
2022/06/15 00:27:41;;;;;;;9.50;5.00;;;;;;;8.52;76.41;98424.71;106098;1279;22569;-85
2022/06/15 00:30:10;;;;;;;13.20;11.40;;;;;;;8.59;75.88;98425.07;105938;1279;25338;-84
2022/06/15 00:32:37;;;;;;;12.30;6.70;;;;;;;8.67;75.66;98426.55;105906;1279;22621;-90
2022/06/15 00:35:06;;;;;;;11.00;8.10;;;;;;;8.71;75.01;98430.84;105943;1279;22550;-86
2022/06/15 00:37:36;;;;;;;7.50;5.10;;;;;;;8.65;75.16;98432.08;105790;1279;23309;-85
2022/06/15 00:40:08;;;;;;;9.50;5.70;;;;;;;8.54;75.76;98428.45;105830;1278;22629;-88
2022/06/15 00:42:36;;;;;;;7.80;5.20;;;;;;;8.39;76.58;98422.20;105989;1279;22584;-86
2022/06/15 00:45:04;;;;;;;12.10;6.50;;;;;;;8.22;76.53;98424.14;106055;1279;25489;-85
2022/06/15 00:47:38;;;;;;;6.80;5.20;;;;;;;8.11;76.27;98427.31;105978;1279;24195;-87
2022/06/15 00:50:18;;;;;;;12.80;5.30;;;;;;;8.04;76.17;98425.01;106105;1279;22558;-87
2022/06/15 00:52:49;;;;;;;7.30;5.20;;;;;;;7.96;76.27;98424.10;105842;1280;22572;-87
2022/06/15 00:55:22;;;;;;;9.50;5.50;;;;;;;7.91;75.94;98424.09;106015;1278;26619;-88
2022/06/15 00:57:51;;;;;;;12.40;8.50;;;;;;;7.87;76.09;98423.88;105977;1279;22886;-88
2022/06/15 01:00:20;;;;;;;13.30;7.90;;;;;;;7.77;76.69;98423.12;105989;1279;22558;-86
2022/06/15 01:02:50;;;;;;;11.20;7.30;;;;;;;7.68;77.64;98418.60;105881;1279;22614;-86
2022/06/15 01:05:26;;;;;;;6.00;4.70;;;;;;;7.63;77.54;98423.48;107278;1279;22554;-85
2022/06/15 01:08:33;;;;;;;10.30;5.30;;;;;;;7.57;77.34;98423.80;106116;1278;22560;-90
2022/06/15 01:11:17;;;;;;;9.20;5.20;;;;;;;7.58;77.02;98424.88;105055;1287;22559;-87
2022/06/15 01:14:13;;;;;;;11.90;6.20;;;;;;;7.70;77.04;98426.98;105138;1287;25311;-86
2022/06/15 01:16:51;;;;;;;8.90;5.70;;;;;;;7.76;76.59;98425.58;105149;1287;24108;-87
2022/06/15 01:19:24;;;;;;;12.90;6.00;;;;;;;7.75;77.85;98423.83;105137;1287;22720;-87
2022/06/15 01:22:17;;;;;;;11.40;5.60;;;;;;;7.65;78.50;98423.60;105152;1286;22745;-87
2022/06/15 01:25:23;;;;;;;10.30;5.90;;;;;;;7.58;78.46;98424.02;105121;1287;22801;-86
2022/06/15 01:27:56;;;;;;;;;;;;;;;7.48;78.35;98423.46;104994;1287;25456;-87
2022/06/15 01:30:43;;;;;;;9.00;6.70;;;;;;;7.36;78.91;98426.16;104954;1287;22569;-85
2022/06/15 01:33:39;;;;;;;8.90;7.40;;;;;;;7.20;79.34;98422.21;105069;1287;24382;-86
2022/06/15 01:36:22;;;;;;;12.10;6.20;;;;;;;7.10;79.30;98424.33;105048;1287;22566;-87
2022/06/15 01:38:59;;;;;;;9.80;4.90;;;;;;;7.03;79.58;98424.02;105059;1287;24398;-86
2022/06/15 01:41:56;;;;;;;10.20;6.20;;;;;;;6.98;79.53;98422.77;105012;1287;22642;-86
2022/06/15 01:44:30;;;;;;;7.50;5.30;;;;;;;6.97;80.34;98425.67;105061;1287;22806;-86
2022/06/15 01:47:04;;;;;;;10.50;7.30;;;;;;;6.95;81.52;98423.78;104961;1283;24116;-88
2022/06/15 01:49:41;;;;;;;9.70;5.80;;;;;;;6.92;82.73;98421.16;105857;1280;22570;-87
2022/06/15 01:52:15;;;;;;;8.90;6.20;;;;;;;6.90;83.09;98420.77;106052;1278;23820;-85
2022/06/15 01:55:08;;;;;;;10.90;5.50;;;;;;;6.88;83.13;98419.95;106024;1279;22551;-87
2022/06/15 01:57:40;;;;;;;13.70;7.60;;;;;;;6.88;83.04;98424.02;105958;1279;25422;-86
2022/06/15 02:00:13;;;;;;;9.10;6.00;;;;;;;6.90;83.13;98422.69;105866;1280;23239;-86
2022/06/15 02:03:02;;;;;;;10.80;6.50;;;;;;;6.90;83.03;98427.19;105638;1279;25283;-85
2022/06/15 02:06:29;;;;;;;10.50;6.50;;;;;;;6.90;82.85;98423.02;105937;1279;24245;-86
2022/06/15 02:09:04;;;;;;;13.20;8.00;;;;;;;6.98;82.71;98421.86;105162;1285;22554;-87
2022/06/15 02:11:39;;;;;;;14.80;7.50;;;;;;;7.03;82.47;98415.67;105241;1285;24222;-86
2022/06/15 02:14:19;;;;;;;10.50;6.30;;;;;;;7.10;83.59;98419.39;105858;1285;22594;-81
2022/06/15 02:16:59;;;;;;;12.30;6.90;;;;;;;7.20;84.21;98418.02;105246;1285;22553;-85
2022/06/15 02:19:34;;;;;;;13.20;9.40;;;;;;;7.25;83.64;98413.60;105002;1285;24208;-83
2022/06/15 02:22:09;;;;;;;11.40;8.00;;;;;;;7.29;83.52;98416.98;105154;1285;24359;-84
2022/06/15 02:24:38;;;;;;;12.20;7.40;;;;;;;7.33;83.65;98419.30;105170;1285;22672;-85
2022/06/15 02:27:08;;;;;;;16.30;7.80;;;;;;;7.42;83.45;98416.36;105173;1285;22582;-85
2022/06/15 02:29:41;;;;;;;16.60;7.80;;;;;;;7.55;83.24;98415.53;105201;1285;24326;-85
2022/06/15 02:32:11;;;;;;;12.80;7.90;;;;;;;7.65;84.05;98414.20;105282;1285;24710;-86
2022/06/15 02:34:39;;;;;;;15.90;8.70;;;;;;;7.69;84.04;98417.52;105208;1285;22558;-87
2022/06/15 02:37:09;;;;;;;17.50;9.40;;;;;;;7.73;83.82;98411.21;104933;1285;22622;-85
2022/06/15 02:39:39;;;;;;;14.30;8.20;;;;;;;7.77;84.04;98411.38;105157;1285;23191;-85
2022/06/15 02:42:28;;;;;;;13.70;9.50;;;;;;;7.79;84.62;98415.67;105098;1285;22624;-87
2022/06/15 02:45:03;;;;;;;12.60;9.40;;;;;;;7.85;84.46;98414.27;105938;1279;22590;-87
2022/06/15 02:47:36;;;;;;;15.30;9.00;;;;;;;7.92;84.23;98412.71;105938;1280;22565;-84
2022/06/15 02:50:06;;;;;;;11.50;9.20;;;;;;;7.96;84.95;98415.83;105972;1278;22560;-86
2022/06/15 02:52:41;;;;;;;13.00;10.80;;;;;;;8.01;84.89;98418.40;105934;1278;22626;-86
2022/06/15 02:55:12;;;;;;;13.00;10.30;;;;;;;8.06;84.92;98422.58;105779;1278;22568;-84
2022/06/15 02:58:00;;;;;;;12.70;9.90;;;;;;;8.10;85.13;98421.36;105693;1280;25367;-91
2022/06/15 03:00:31;;;;;;;13.60;9.00;;;;;;;8.16;85.21;98421.08;105682;1279;22562;-91
2022/06/15 03:03:00;;;;;;;15.80;9.60;;;;;;;8.24;85.05;98422.47;105871;1279;22539;-87
2022/06/15 03:05:28;;;;;;;16.00;9.40;;;;;;;8.30;84.96;98421.65;105929;1280;22731;-87
2022/06/15 03:07:56;;;;;;;14.90;9.90;;;;;;;8.34;85.08;98416.60;105834;1278;22558;-86
2022/06/15 03:10:25;;;;;;;13.50;8.60;;;;;;;8.37;85.29;98416.33;105828;1278;22551;-87
2022/06/15 03:12:53;;;;;;;13.40;8.10;;;;;;;8.42;85.17;98418.07;105839;1278;22576;-87
2022/06/15 03:15:21;;;;;;;11.60;8.20;;;;;;;8.47;84.90;98415.48;105803;1278;23365;-88
2022/06/15 03:17:52;;;;;;;29.20;8.50;;;;;;;8.56;84.95;98411.48;105733;1278;22558;-86
2022/06/15 03:20:21;;;;;;;14.40;7.60;;;;;;;8.64;84.99;98409.41;105760;1279;22554;-87
2022/06/15 03:22:49;;;;;;;14.70;8.50;;;;;;;8.69;85.43;98409.77;105820;1278;22581;-86
2022/06/15 03:25:21;;;;;;;8.80;7.10;;;;;;;8.72;85.49;98410.16;105819;1278;22683;-86
2022/06/15 03:27:50;;;;;;;12.30;6.90;;;;;;;8.77;85.57;98414.91;105701;1279;22619;-86
2022/06/15 03:30:18;;;;;;;11.40;7.20;;;;;;;8.81;85.48;98415.75;105806;1280;25362;-86
2022/06/15 03:32:53;;;;;;;9.30;6.30;;;;;;;8.87;85.36;98414.66;106035;1279;22676;-86
2022/06/15 03:35:21;;;;;;;12.10;7.60;;;;;;;8.95;85.41;98415.23;106060;1278;22568;-87
2022/06/15 03:37:50;;;;;;;9.90;7.30;;;;;;;9.00;84.97;98416.66;106625;1278;22612;-85
2022/06/15 03:40:26;;;;;;;10.20;8.10;;;;;;;9.04;85.07;98420.07;107900;1278;22532;-86
2022/06/15 03:42:54;;;;;;;11.70;7.90;;;;;;;9.08;84.59;98422.74;108167;1278;22580;-83
2022/06/15 03:45:23;;;;;;;14.20;8.70;;;;;;;9.14;84.69;98425.56;108148;1277;22566;-85
2022/06/15 03:47:55;;;;;;;14.50;8.30;;;;;;;9.22;84.99;98422.09;107515;1277;22560;-86
2022/06/15 03:50:26;;;;;;;14.30;7.20;;;;;;;9.27;85.15;98426.48;107208;1278;22565;-87
2022/06/15 03:52:59;;;;;;;13.00;7.00;;;;;;;9.32;84.79;98425.60;106000;1278;25272;-86
2022/06/15 03:55:28;;;;;;;14.90;8.60;;;;;;;9.36;84.31;98424.23;105896;1278;22567;-87
2022/06/15 03:57:57;;;;;;;10.80;8.80;;;;;;;9.39;84.71;98425.33;105785;1278;22548;-86
2022/06/15 04:00:29;;;;;;;12.50;8.80;;;;;;;9.42;84.56;98421.71;105942;1278;22879;-83
2022/06/15 04:03:06;;;;;;;12.70;7.70;;;;;;;9.50;84.72;98421.71;105755;1279;22564;-83
2022/06/15 04:05:52;;;;;;;9.90;6.80;;;;;;;9.53;84.23;98421.33;105807;1278;22623;-82
2022/06/15 04:08:37;;;;;;;10.90;6.60;;;;;;;9.54;84.08;98422.98;105738;1279;22545;-82
2022/06/15 04:11:58;;;;;;;12.90;8.10;;;;;;;9.49;84.57;98419.04;105813;1278;22553;-82
2022/06/15 04:14:13;;;;;;;13.10;8.60;;;;;;;9.39;84.84;98420.77;105757;1279;22557;-82
2022/06/15 04:16:44;;;;;;;11.70;7.30;;;;;;;9.38;84.90;98418.93;105859;1278;22568;-81
2022/06/15 04:19:12;;;;;;;11.30;7.70;;;;;;;9.43;84.83;98417.99;105822;1278;22547;-82
2022/06/15 04:21:43;;;;;;;16.10;12.50;;;;;;;9.48;85.16;98423.02;105835;1278;22670;-82
2022/06/15 04:24:15;;;;;;;21.70;15.70;;;;;;;9.50;84.83;98422.31;105923;1279;22548;-82
2022/06/15 04:26:44;;;;;;;20.20;15.00;;;;;;;9.55;85.60;98424.32;105865;1280;22700;-82
2022/06/15 04:29:19;;;;;;;15.50;11.70;;;;;;;9.64;85.38;98424.10;106014;1279;22692;-82
2022/06/15 04:31:48;;;;;;;16.40;10.10;;;;;;;9.74;85.71;98425.43;106022;1279;22600;-81
2022/06/15 04:34:18;;;;;;;16.70;12.90;;;;;;;9.86;85.88;98426.32;105834;1280;22663;-81
2022/06/15 04:36:46;;;;;;;16.20;12.00;;;;;;;9.98;85.73;98420.29;106035;1279;22565;-82
2022/06/15 04:39:15;;;;;;;19.90;12.90;;;;;;;10.12;85.58;98418.63;105882;1279;25357;-82
2022/06/15 04:41:45;;;;;;;13.00;10.40;;;;;;;10.32;85.87;98415.98;106030;1279;25238;-82
2022/06/15 04:44:13;;;;;;;13.90;10.20;;;;;;;10.53;85.63;98417.34;106009;1279;25411;-82
2022/06/15 04:46:44;;;;;;;18.90;12.60;;;;;;;10.71;85.70;98416.35;105974;1279;22557;-82
2022/06/15 04:49:13;;;;;;;16.00;11.30;;;;;;;10.89;85.64;98413.29;106030;1278;22558;-82
2022/06/15 04:51:50;;;;;;;16.50;10.60;;;;;;;11.06;85.58;98410.48;105873;1279;25414;-82
2022/06/15 04:54:20;;;;;;;14.90;10.40;;;;;;;11.26;85.39;98412.27;105997;1279;22560;-82
2022/06/15 04:56:52;;;;;;;18.40;10.50;;;;;;;11.49;85.31;98412.55;105883;1278;22567;-83
2022/06/15 04:59:21;;;;;;;12.70;9.70;;;;;;;11.69;85.11;98414.10;106248;1279;22583;-82
2022/06/15 05:01:51;;;;;;;14.30;10.30;;;;;;;11.87;84.94;98416.52;106844;1279;22587;-83
2022/06/15 05:04:19;;;;;;;14.30;10.70;;;;;;;12.01;84.70;98414.44;105826;1279;22554;-82
2022/06/15 05:06:48;;;;;;;19.30;10.40;;;;;;;12.17;84.55;98417.30;105837;1279;25827;-82
2022/06/15 05:09:16;;;;;;;13.40;8.70;;;;;;;12.31;84.14;98418.86;105852;1279;22582;-82
2022/06/15 05:11:47;;;;;;;12.70;8.60;;;;;;;12.46;83.78;98415.92;105881;1278;22582;-82
2022/06/15 05:14:16;;;;;;;17.40;9.20;;;;;;;12.65;83.93;98413.97;105931;1279;22640;-81
2022/06/15 05:16:46;;;;;;;13.90;7.70;;;;;;;12.83;83.42;98412.54;106007;1278;22567;-82
2022/06/15 05:19:18;;;;;;;10.90;6.90;;;;;;;12.98;83.03;98412.80;106009;1279;22564;-82
2022/06/15 05:21:46;;;;;;;11.00;6.60;;;;;;;13.12;82.76;98414.70;105925;1279;22584;-82
2022/06/15 05:24:18;;;;;;;10.60;5.30;;;;;;;13.28;82.63;98414.95;106005;1279;22567;-81
2022/06/15 05:26:51;;;;;;;8.80;4.50;;;;;;;13.40;81.40;98417.33;106101;1279;22584;-82
2022/06/15 05:29:19;;;;;;;12.20;5.40;;;;;;;13.49;80.78;98418.63;106123;1279;25412;-83
2022/06/15 05:31:53;;;;;;;8.20;4.80;;;;;;;13.58;79.23;98423.88;105924;1279;22568;-83
2022/06/15 05:34:21;;;;;;;13.10;7.00;;;;;;;13.65;78.71;98424.04;105976;1279;22548;-84
2022/06/15 05:36:49;;;;;;;16.70;8.00;;;;;;;13.80;79.34;98426.52;105868;1278;25412;-84
2022/06/15 05:39:18;;;;;;;11.40;6.00;;;;;;;13.93;78.86;98430.64;105841;1279;25361;-84
2022/06/15 05:41:49;;;;;;;10.60;5.80;;;;;;;14.01;76.83;98434.58;105959;1279;22553;-83
2022/06/15 05:47:07;;;;;;;11.40;5.20;;;;;;;14.12;72.70;98439.73;105664;1279;22568;-83
2022/06/15 05:49:43;;;;;;;9.70;5.20;;;;;;;14.20;73.99;98439.98;105806;1279;22630;-82
2022/06/15 05:52:12;;;;;;;18.10;4.70;;;;;;;14.28;72.49;98440.66;105819;1279;22756;-82
2022/06/15 05:54:43;;;;;;;10.20;5.20;;;;;;;14.37;73.19;98436.66;105639;1279;22614;-82
2022/06/15 05:57:16;;;;;;;8.80;4.90;;;;;;;14.49;73.42;98442.59;105986;1279;22685;-82
2022/06/15 05:59:47;;;;;;;12.10;5.40;;;;;;;14.63;73.46;98441.66;106057;1279;25416;-82
2022/06/15 06:02:17;;;;;;;14.30;5.10;;;;;;;14.73;72.86;98441.23;105961;1279;22533;-83
2022/06/15 06:04:46;;;;;;;9.80;5.00;;;;;;;14.84;73.16;98441.91;106092;1279;23475;-82
2022/06/15 06:07:22;;;;;;;16.00;5.60;;;;;;;14.96;72.84;98445.34;105795;1279;22566;-83
2022/06/15 06:09:50;;;;;;;10.80;6.00;;;;;;;15.02;70.84;98445.95;106010;1278;24259;-84
2022/06/15 06:12:19;;;;;;;11.90;5.70;;;;;;;15.09;71.31;98449.30;106338;1279;22543;-84
2022/06/15 06:14:50;;;;;;;14.20;6.00;;;;;;;15.19;71.44;98449.73;106822;1279;22887;-84
2022/06/15 06:17:18;;;;;;;11.00;5.50;;;;;;;15.25;70.27;98449.28;105970;1279;24102;-84
2022/06/15 06:19:46;;;;;;;12.60;5.40;;;;;;;15.26;68.55;98453.30;105960;1279;22585;-82
2022/06/15 06:22:14;;;;;;;9.50;5.10;;;;;;;15.27;68.65;98450.25;105950;1279;22690;-82
2022/06/15 06:24:48;;;;;;;9.60;4.80;;;;;;;15.31;69.30;98454.31;105837;1279;25384;-82
2022/06/15 06:27:17;;;;;;;12.80;5.70;;;;;;;15.41;69.77;98457.35;105829;1279;23395;-82
2022/06/15 06:29:45;;;;;;;11.20;6.40;;;;;;;15.56;69.17;98457.23;105876;1279;22550;-82
2022/06/15 06:32:15;;;;;;;12.30;6.20;;;;;;;15.66;69.33;98459.23;105973;1279;22583;-82
2022/06/15 06:34:42;;;;;;;11.00;6.20;;;;;;;15.76;69.22;98458.73;105838;1280;25396;-85
2022/06/15 06:37:13;;;;;;;11.50;7.00;;;;;;;15.87;69.01;98461.86;106077;1279;22697;-82
2022/06/15 06:39:41;;;;;;;12.50;5.70;;;;;;;15.99;68.18;98464.48;105922;1279;24473;-82
2022/06/15 06:42:10;;;;;;;9.40;5.50;;;;;;;16.03;67.86;98463.59;105805;1279;22557;-82
2022/06/15 06:44:38;;;;;;;13.40;6.00;;;;;;;16.06;66.16;98459.30;105775;1278;22540;-82
2022/06/15 06:47:07;;;;;;;12.80;6.00;;;;;;;16.09;64.17;98461.09;105818;1279;22547;-82
2022/06/15 06:49:37;;;;;;;11.10;5.00;;;;;;;16.17;64.95;98460.92;105716;1280;25731;-82
2022/06/15 06:52:05;;;;;;;14.60;6.10;;;;;;;16.18;62.72;98459.97;105806;1279;25396;-82
2022/06/15 06:54:33;;;;;;;12.20;6.00;;;;;;;16.21;63.48;98456.80;105826;1279;24075;-81
2022/06/15 06:57:01;;;;;;;14.20;6.00;;;;;;;16.24;62.24;98461.67;105830;1279;22592;-82
2022/06/15 06:59:29;;;;;;;15.20;6.00;;;;;;;16.24;60.43;98458.36;105990;1279;25142;-83
2022/06/15 07:01:57;;;;;;;11.80;5.30;;;;;;;16.23;59.58;98458.93;105967;1279;22670;-84
2022/06/15 07:04:25;;;;;;;8.40;5.80;;;;;;;16.25;60.06;98461.46;105912;1279;22562;-82
2022/06/15 07:06:57;;;;;;;16.80;9.40;;;;;;;16.33;60.49;98462.28;105982;1279;23295;-81
2022/06/15 07:09:26;;;;;;;11.50;7.20;;;;;;;16.48;61.69;98457.92;105980;1279;24215;-82
2022/06/15 07:11:54;;;;;;;11.80;6.10;;;;;;;16.62;60.99;98461.21;105970;1279;24315;-83
2022/06/15 07:14:22;;;;;;;11.60;5.90;;;;;;;16.77;60.53;98455.83;105918;1279;24217;-83
2022/06/15 07:16:50;;;;;;;9.40;5.10;;;;;;;16.87;61.06;98454.38;106189;1279;22868;-82
2022/06/15 07:19:18;;;;;;;7.90;3.70;;;;;;;17.01;60.85;98456.18;106182;1279;22734;-83
2022/06/15 07:21:46;;;;;;;9.40;4.00;;;;;;;17.10;57.59;98458.26;105796;1280;22565;-82
2022/06/15 07:24:14;;;;;;;11.00;4.10;;;;;;;17.08;57.79;98455.99;106620;1279;22627;-83
2022/06/15 07:26:46;;;;;;;10.60;4.90;;;;;;;17.12;57.77;98454.52;105993;1280;23981;-82
2022/06/15 07:29:18;;;;;;;11.60;4.90;;;;;;;17.12;57.32;98453.92;106239;1279;23037;-82
2022/06/15 07:31:51;;;;;;;13.00;4.60;;;;;;;17.12;56.06;98449.17;106174;1279;24498;-82
2022/06/15 07:34:19;;;;;;;13.80;5.20;;;;;;;17.18;57.57;98449.89;105973;1279;22585;-82
2022/06/15 07:36:47;;;;;;;10.00;3.90;;;;;;;17.30;55.66;98448.45;106023;1279;22552;-82
2022/06/15 07:39:23;;;;;;;8.60;3.90;;;;;;;17.33;53.99;98450.67;106042;1279;22701;-81
2022/06/15 07:41:52;;;;;;;8.00;4.50;;;;;;;17.32;55.88;98443.46;105983;1278;22545;-82
2022/06/15 07:44:21;;;;;;;9.70;3.90;;;;;;;17.44;56.64;98441.52;105975;1279;25273;-82
2022/06/15 07:49:54;;;;;;;8.90;3.90;;;;;;;17.56;55.93;98439.98;106004;1279;24111;-82
2022/06/15 07:49:56;;;;;;;9.90;4.00;;;;;;;17.70;56.40;98442.20;106184;1278;22689;-83
2022/06/15 07:52:47;;;;;;;10.60;3.90;;;;;;;17.81;52.07;98442.38;106163;1279;24333;-83
2022/06/15 07:55:19;;;;;;;9.20;3.80;;;;;;;17.86;52.88;98446.90;105913;1279;22558;-84
2022/06/15 07:57:47;;;;;;;5.80;2.80;;;;;;;17.90;52.09;98447.09;105990;1279;25360;-82
2022/06/15 08:00:16;;;;;;;7.80;3.30;;;;;;;17.84;49.98;98448.52;106239;1280;22544;-85
2022/06/15 08:02:44;;;;;;;7.00;3.30;;;;;;;17.77;49.31;98456.35;106186;1279;22498;-82
2022/06/15 08:05:12;;;;;;;7.90;3.60;;;;;;;17.71;49.15;98455.38;106329;1279;22664;-81
2022/06/15 08:07:43;;;;;;;9.30;3.40;;;;;;;17.67;50.22;98458.45;106229;1279;24344;-81
2022/06/15 08:10:13;;;;;;;9.20;3.20;;;;;;;17.78;52.06;98452.95;106197;1279;24288;-81
2022/06/15 08:12:43;;;;;;;14.80;3.50;;;;;;;18.02;52.74;98447.92;106244;1279;22788;-82
2022/06/15 08:15:12;;;;;;;8.40;3.30;;;;;;;18.27;52.03;98444.39;106196;1279;22566;-82
2022/06/15 08:17:46;;;;;;;9.60;3.80;;;;;;;18.37;50.85;98443.71;106175;1279;23187;-83
2022/06/15 08:20:28;;;;;;;7.20;2.70;;;;;;;18.48;50.08;98443.01;106164;1279;22530;-82
2022/06/15 08:23:01;;;;;;;8.30;3.60;;;;;;;18.41;46.93;98448.70;106138;1279;22576;-82
2022/06/15 08:25:35;;;;;;;9.40;3.40;;;;;;;18.34;48.40;98445.88;106136;1279;22889;-83
2022/06/15 08:28:05;;;;;;;17.60;8.50;;;;;;;18.26;48.54;98442.15;106242;1279;25488;-83
2022/06/15 08:30:36;;;;;;;7.20;3.50;;;;;;;18.32;49.20;98443.94;106283;1279;24243;-82
2022/06/15 08:33:06;;;;;;;10.60;4.00;;;;;;;18.36;48.91;98441.67;106203;1279;22556;-84
2022/06/15 08:35:38;;;;;;;10.00;3.90;;;;;;;18.39;48.78;98443.30;106249;1279;22619;-85
2022/06/15 08:38:09;;;;;;;7.70;4.00;;;;;;;18.49;48.84;98446.23;105849;1279;22732;-83
2022/06/15 08:40:52;;;;;;;8.90;3.60;;;;;;;18.62;46.94;98451.83;106233;1279;22654;-83
2022/06/15 08:43:39;;;;;;;11.90;4.20;;;;;;;18.53;46.20;98456.21;106211;1279;25448;-82
2022/06/15 08:46:13;;;;;;;7.00;3.40;;;;;;;18.35;45.53;98453.16;106162;1279;23001;-82
2022/06/15 08:48:46;;;;;;;9.60;3.70;;;;;;;18.18;45.47;98457.38;106139;1279;25287;-85
2022/06/15 08:51:28;;;;;;;10.30;3.70;;;;;;;18.17;45.56;98454.45;105928;1279;23946;-85
2022/06/15 08:54:19;;;;;;;9.90;3.80;;;;;;;18.21;45.80;98445.15;105899;1279;22766;-85
2022/06/15 08:57:17;;;;;;;7.70;3.70;;;;;;;18.44;47.47;98448.48;106174;1279;25359;-87
2022/06/15 08:59:54;;;;;;;7.70;3.50;;;;;;;18.49;45.95;98447.33;106270;1279;24189;-86
2022/06/15 09:02:44;;;;;;;9.10;3.20;;;;;;;18.54;45.51;98444.30;106058;1279;22558;-86
2022/06/15 09:05:24;;;;;;;8.00;4.00;;;;;;;18.70;46.71;98446.34;106049;1279;24519;-86
2022/06/15 09:08:12;;;;;;;7.10;3.30;;;;;;;18.77;46.59;98444.09;106067;1279;22567;-84
2022/06/15 09:11:03;;;;;;;10.00;3.40;;;;;;;18.91;46.83;98440.88;106191;1279;22887;-86
2022/06/15 09:14:05;;;;;;;8.30;3.40;;;;;;;19.26;47.80;98443.21;106223;1279;24419;-87
2022/06/15 09:17:19;;;;;;;6.90;3.50;;;;;;;19.69;47.42;98441.66;106136;1279;22581;-83
2022/06/15 09:19:56;;;;;;;14.10;5.90;;;;;;;19.93;45.19;98442.85;105393;1287;22609;-84
2022/06/15 09:22:31;;;;;;;9.90;4.20;;;;;;;19.93;44.06;98449.48;105393;1287;22706;-84
2022/06/15 09:25:13;;;;;;;11.70;4.20;;;;;;;19.85;43.69;98446.84;105160;1287;22584;-84
2022/06/15 09:27:46;;;;;;;6.20;3.70;;;;;;;19.85;43.38;98443.02;105322;1287;22577;-84
2022/06/15 09:30:31;;;;;;;8.10;4.20;;;;;;;19.84;43.41;98443.86;105344;1287;23397;-83
2022/06/15 09:33:16;;;;;;;8.60;3.60;;;;;;;19.80;43.41;98449.05;105268;1287;24391;-86
2022/06/15 09:36:31;;;;;;;9.60;3.50;;;;;;;19.68;44.75;98442.58;105342;1288;22608;-86
2022/06/15 09:38:59;;;;;;;10.00;4.80;;;;;;;19.77;44.90;98434.52;105254;1288;23398;-86
2022/06/15 09:41:59;;;;;;;9.20;4.10;;;;;;;19.85;44.43;98436.98;105423;1287;24411;-88
2022/06/15 09:44:50;;;;;;;9.30;3.40;;;;;;;20.03;43.48;98427.56;104950;1290;24215;-87
2022/06/15 09:47:48;;;;;;;9.90;4.20;;;;;;;20.00;44.01;98431.92;104805;1290;25506;-87
2022/06/15 09:50:29;;;;;;;6.60;3.50;;;;;;;20.18;43.27;98432.29;104982;1285;24355;-87
2022/06/15 09:53:10;;;;;;;9.10;3.90;;;;;;;20.32;43.78;98423.59;105799;1285;22597;-87
2022/06/15 09:55:48;;;;;;;9.30;4.40;;;;;;;20.30;42.20;98435.29;105378;1285;24532;-88
2022/06/15 09:58:42;;;;;;;12.80;5.20;;;;;;;20.15;42.19;98431.34;105427;1285;25312;-88
2022/06/15 10:01:12;;;;;;;10.50;4.60;;;;;;;20.16;42.23;98434.51;105439;1285;22611;-87
2022/06/15 10:03:44;;;;;;;8.30;3.60;;;;;;;20.10;42.30;98429.64;105149;1285;23149;-87
2022/06/15 10:06:45;;;;;;;9.00;3.40;;;;;;;20.07;41.60;98432.77;105434;1285;25450;-86
2022/06/15 10:09:16;;;;;;;7.10;3.60;;;;;;;20.17;42.77;98434.15;105466;1285;22735;-87
2022/06/15 10:11:52;;;;;;;7.40;3.30;;;;;;;20.43;42.63;98430.48;105441;1285;22615;-87
2022/06/15 10:14:36;;;;;;;10.00;4.10;;;;;;;20.77;43.19;98421.98;105411;1285;22748;-86
2022/06/15 10:17:28;;;;;;;9.70;4.20;;;;;;;21.04;41.43;98425.20;105440;1284;25283;-87
2022/06/15 10:19:58;;;;;;;7.00;3.60;;;;;;;21.03;42.15;98418.39;105382;1279;22563;-85
2022/06/15 10:22:30;;;;;;;9.00;3.50;;;;;;;21.12;40.72;98414.44;105712;1279;409875;-84
2022/06/15 10:25:02;;;;;;;13.90;6.80;;;;;;;21.09;40.08;98410.37;105987;1279;25480;-84
2022/06/15 10:27:35;;;;;;;12.10;8.10;;;;;;;21.00;40.22;98410.56;106173;1279;22816;-86
2022/06/15 10:30:17;;;;;;;9.80;3.90;;;;;;;21.12;41.04;98404.65;106179;1279;22715;-85
2022/06/15 10:33:17;;;;;;;8.80;4.20;;;;;;;21.37;41.50;98401.30;106100;1279;25251;-85
2022/06/15 10:35:53;;;;;;;9.20;4.00;;;;;;;21.54;39.98;98400.45;106107;1279;22713;-82
2022/06/15 10:38:21;;;;;;;10.40;4.40;;;;;;;21.54;40.81;98394.95;106141;1279;23976;-82
2022/06/15 10:43:49;;;;;;;7.30;3.30;;;;;;;21.64;38.64;98393.21;105992;1279;24214;-81
2022/06/15 10:46:20;;;;;;;7.50;3.20;;;;;;;21.43;38.11;98389.48;106033;1278;24432;-83
2022/06/15 10:48:54;;;;;;;8.70;3.60;;;;;;;21.03;38.49;98388.56;106174;1279;22563;-81
2022/06/15 10:51:35;;;;;;;10.70;4.30;;;;;;;20.63;38.74;98389.63;106007;1279;24369;-82
2022/06/15 11:02:06;;;;;;;7.50;3.70;;;;;;;20.57;39.69;98384.77;105990;1281;24494;-81
2022/06/15 11:03:23;;;;;;;6.90;3.70;;;;;;;20.73;40.58;98388.53;106034;1279;22566;-81
2022/06/15 11:05:54;;;;;;;9.80;3.60;;;;;;;20.88;40.93;98388.59;106125;1279;24247;-82
2022/06/15 11:08:26;;;;;;;9.70;4.00;;;;;;;21.21;41.16;98389.67;106163;1280;26551;-80
2022/06/15 11:11:10;;;;;;;8.90;3.50;;;;;;;21.59;39.90;98389.83;106229;1278;22625;-83
2022/06/15 11:13:42;;;;;;;8.20;3.90;;;;;;;21.70;38.88;98390.30;106252;1279;23980;-80
2022/06/15 11:19:19;;;;;;;7.60;2.90;;;;;;;21.43;39.08;98385.08;106240;1279;25362;-88
2022/06/15 11:21:53;;;;;;;9.10;3.00;;;;;;;21.39;39.90;98387.52;106106;1280;24183;-85
2022/06/15 11:24:37;;;;;;;8.80;3.50;;;;;;;21.33;40.11;98384.71;106139;1279;24371;-87
2022/06/15 11:27:17;;;;;;;6.30;2.80;;;;;;;21.29;39.50;98381.63;106271;1279;22603;-85
2022/06/15 11:30:00;;;;;;;7.20;3.10;;;;;;;21.47;39.02;98377.80;106264;1280;23085;-82
2022/06/15 11:32:45;;;;;;;6.60;3.50;;;;;;;21.78;40.07;98373.12;106161;1280;22796;-83
2022/06/15 11:35:13;;;;;;;7.20;3.20;;;;;;;22.10;39.12;98373.05;106161;1281;22668;-85
2022/06/15 11:38:18;;;;;;;8.30;3.40;;;;;;;22.44;39.46;98369.22;106175;1280;22665;-85
2022/06/15 11:40:51;;;;;;;6.20;3.20;;;;;;;22.69;38.32;98370.02;106143;1281;24429;-84
2022/06/15 11:43:37;;;;;;;8.10;3.20;;;;;;;22.68;38.36;98364.27;106164;1281;22599;-87
2022/06/15 11:46:23;;;;;;;6.30;2.70;;;;;;;22.97;39.21;98363.34;106277;1279;22781;-84
2022/06/15 11:49:19;;;;;;;12.40;3.40;;;;;;;23.13;37.63;98369.71;106135;1281;22574;-85
2022/06/15 11:52:05;;;;;;;9.70;3.40;;;;;;;22.87;38.54;98363.87;105976;1281;22589;-83
2022/06/15 11:54:39;;;;;;;8.60;3.10;;;;;;;22.98;38.24;98367.73;106011;1278;25474;-83
2022/06/15 11:57:27;;;;;;;7.30;3.00;;;;;;;23.18;37.32;98366.56;106051;1279;22557;-83
2022/06/15 12:00:14;;;;;;;6.80;2.70;;;;;;;23.18;36.73;98365.78;106023;1279;22736;-81
2022/06/15 12:03:17;;;;;;;6.80;2.70;;;;;;;22.82;36.09;98368.74;106007;1281;22640;-85
2022/06/15 12:05:56;;;;;;;8.50;2.90;;;;;;;22.48;37.20;98366.07;106111;1281;23944;-85
2022/06/15 12:08:33;;;;;;;7.10;3.40;;;;;;;22.77;37.51;98368.98;105997;1277;25358;-84
2022/06/15 12:12:37;;;;;;;10.10;3.00;;;;;;;23.08;37.13;98364.29;105950;1281;22646;-85
2022/06/15 12:14:05;;;;;;;12.60;3.30;;;;;;;23.44;36.50;98364.02;106158;1280;22562;-85
2022/06/15 12:16:48;;;;;;;6.60;2.70;;;;;;;23.51;35.82;98357.89;106209;1281;25579;-85